sensor_id;sensor_type;location;lat;lon;timestamp;P1;durP1;ratioP1;P2;durP2;ratioP2
14139;SDS011;7150;53.514;9.988;2024-02-28T00:01:24;14.83;;;12.30;;
14139;SDS011;7150;53.514;9.988;2024-02-28T00:03:50;18.90;;;12.47;;
14139;SDS011;7150;53.514;9.988;2024-02-28T00:06:18;17.47;;;12.93;;
14139;SDS011;7150;53.514;9.988;2024-02-28T00:08:43;16.77;;;12.63;;
14139;SDS011;7150;53.514;9.988;2024-02-28T00:11:09;16.70;;;12.47;;
14139;SDS011;7150;53.514;9.988;2024-02-28T00:13:35;16.57;;;12.23;;
14139;SDS011;7150;53.514;9.988;2024-02-28T00:16:01;16.83;;;12.77;;
14139;SDS011;7150;53.514;9.988;2024-02-28T00:18:26;15.30;;;11.67;;
14139;SDS011;7150;53.514;9.988;2024-02-28T00:20:52;17.33;;;12.87;;
14139;SDS011;7150;53.514;9.988;2024-02-28T00:23:19;20.47;;;14.20;;
14139;SDS011;7150;53.514;9.988;2024-02-28T00:25:44;17.97;;;14.00;;
14139;SDS011;7150;53.514;9.988;2024-02-28T00:28:10;19.53;;;13.70;;
14139;SDS011;7150;53.514;9.988;2024-02-28T00:30:35;19.23;;;13.87;;
14139;SDS011;7150;53.514;9.988;2024-02-28T00:33:01;20.07;;;14.30;;
14139;SDS011;7150;53.514;9.988;2024-02-28T00:35:26;19.13;;;13.50;;
14139;SDS011;7150;53.514;9.988;2024-02-28T00:37:54;16.93;;;12.83;;
14139;SDS011;7150;53.514;9.988;2024-02-28T00:40:19;17.47;;;12.47;;
14139;SDS011;7150;53.514;9.988;2024-02-28T00:42:45;18.80;;;13.60;;
14139;SDS011;7150;53.514;9.988;2024-02-28T00:45:10;19.13;;;13.53;;
14139;SDS011;7150;53.514;9.988;2024-02-28T00:47:36;17.70;;;13.47;;
14139;SDS011;7150;53.514;9.988;2024-02-28T00:50:02;18.70;;;13.50;;
14139;SDS011;7150;53.514;9.988;2024-02-28T00:52:29;21.47;;;14.73;;
14139;SDS011;7150;53.514;9.988;2024-02-28T00:54:56;20.77;;;13.80;;
14139;SDS011;7150;53.514;9.988;2024-02-28T00:57:22;19.33;;;14.47;;
14139;SDS011;7150;53.514;9.988;2024-02-28T00:59:47;21.43;;;14.77;;
14139;SDS011;7150;53.514;9.988;2024-02-28T01:02:13;20.30;;;14.67;;
14139;SDS011;7150;53.514;9.988;2024-02-28T01:04:39;21.57;;;14.87;;
14139;SDS011;7150;53.514;9.988;2024-02-28T01:07:06;24.77;;;15.53;;
14139;SDS011;7150;53.514;9.988;2024-02-28T01:09:32;23.13;;;14.87;;
14139;SDS011;7150;53.514;9.988;2024-02-28T01:11:58;21.67;;;15.73;;
14139;SDS011;7150;53.514;9.988;2024-02-28T01:14:24;21.47;;;13.57;;
14139;SDS011;7150;53.514;9.988;2024-02-28T01:16:49;21.63;;;14.43;;
14139;SDS011;7150;53.514;9.988;2024-02-28T01:19:15;21.10;;;15.10;;
14139;SDS011;7150;53.514;9.988;2024-02-28T01:21:41;22.20;;;15.43;;
14139;SDS011;7150;53.514;9.988;2024-02-28T01:24:07;21.70;;;14.83;;
14139;SDS011;7150;53.514;9.988;2024-02-28T01:26:32;23.70;;;15.20;;
14139;SDS011;7150;53.514;9.988;2024-02-28T01:28:58;22.33;;;14.60;;
14139;SDS011;7150;53.514;9.988;2024-02-28T01:31:23;23.17;;;15.50;;
14139;SDS011;7150;53.514;9.988;2024-02-28T01:33:49;22.63;;;15.10;;
14139;SDS011;7150;53.514;9.988;2024-02-28T01:36:14;23.17;;;15.07;;
14139;SDS011;7150;53.514;9.988;2024-02-28T01:38:40;27.63;;;15.97;;
14139;SDS011;7150;53.514;9.988;2024-02-28T01:41:06;21.93;;;14.70;;
14139;SDS011;7150;53.514;9.988;2024-02-28T01:43:31;24.73;;;15.40;;
14139;SDS011;7150;53.514;9.988;2024-02-28T01:45:59;22.13;;;14.87;;
14139;SDS011;7150;53.514;9.988;2024-02-28T01:48:26;22.17;;;14.53;;
14139;SDS011;7150;53.514;9.988;2024-02-28T01:50:52;23.03;;;14.57;;
14139;SDS011;7150;53.514;9.988;2024-02-28T01:53:17;22.93;;;14.80;;
14139;SDS011;7150;53.514;9.988;2024-02-28T01:55:43;23.10;;;14.57;;
14139;SDS011;7150;53.514;9.988;2024-02-28T01:58:08;26.37;;;15.70;;
14139;SDS011;7150;53.514;9.988;2024-02-28T02:00:35;21.37;;;13.77;;
14139;SDS011;7150;53.514;9.988;2024-02-28T02:03:02;22.97;;;13.93;;
14139;SDS011;7150;53.514;9.988;2024-02-28T02:05:28;22.03;;;14.43;;
14139;SDS011;7150;53.514;9.988;2024-02-28T02:07:54;22.90;;;14.57;;
14139;SDS011;7150;53.514;9.988;2024-02-28T02:10:22;25.20;;;15.13;;
14139;SDS011;7150;53.514;9.988;2024-02-28T02:12:48;24.63;;;15.03;;
14139;SDS011;7150;53.514;9.988;2024-02-28T02:15:13;21.73;;;14.50;;
14139;SDS011;7150;53.514;9.988;2024-02-28T02:17:39;21.43;;;14.07;;
14139;SDS011;7150;53.514;9.988;2024-02-28T02:20:05;23.93;;;14.53;;
14139;SDS011;7150;53.514;9.988;2024-02-28T02:22:36;19.37;;;13.13;;
14139;SDS011;7150;53.514;9.988;2024-02-28T02:25:03;20.97;;;13.67;;
14139;SDS011;7150;53.514;9.988;2024-02-28T02:27:29;21.67;;;13.70;;
14139;SDS011;7150;53.514;9.988;2024-02-28T02:29:55;22.63;;;13.83;;
14139;SDS011;7150;53.514;9.988;2024-02-28T02:32:20;23.83;;;14.33;;
14139;SDS011;7150;53.514;9.988;2024-02-28T02:34:46;21.20;;;13.43;;
14139;SDS011;7150;53.514;9.988;2024-02-28T02:37:11;22.67;;;14.17;;
14139;SDS011;7150;53.514;9.988;2024-02-28T02:39:37;22.43;;;14.60;;
14139;SDS011;7150;53.514;9.988;2024-02-28T02:42:02;23.17;;;14.40;;
14139;SDS011;7150;53.514;9.988;2024-02-28T02:44:28;25.00;;;14.37;;
14139;SDS011;7150;53.514;9.988;2024-02-28T02:46:53;25.37;;;15.10;;
14139;SDS011;7150;53.514;9.988;2024-02-28T02:49:19;23.40;;;14.43;;
14139;SDS011;7150;53.514;9.988;2024-02-28T02:51:44;23.00;;;14.37;;
14139;SDS011;7150;53.514;9.988;2024-02-28T02:54:10;24.10;;;14.33;;
14139;SDS011;7150;53.514;9.988;2024-02-28T02:56:36;24.10;;;14.50;;
14139;SDS011;7150;53.514;9.988;2024-02-28T02:59:02;25.80;;;14.30;;
14139;SDS011;7150;53.514;9.988;2024-02-28T03:01:27;25.47;;;14.40;;
14139;SDS011;7150;53.514;9.988;2024-02-28T03:03:53;25.07;;;14.20;;
14139;SDS011;7150;53.514;9.988;2024-02-28T03:06:19;23.47;;;14.27;;
14139;SDS011;7150;53.514;9.988;2024-02-28T03:08:44;24.03;;;13.60;;
14139;SDS011;7150;53.514;9.988;2024-02-28T03:11:10;26.40;;;14.90;;
14139;SDS011;7150;53.514;9.988;2024-02-28T03:13:36;24.30;;;14.67;;
14139;SDS011;7150;53.514;9.988;2024-02-28T03:16:03;24.47;;;13.93;;
14139;SDS011;7150;53.514;9.988;2024-02-28T03:18:29;22.83;;;13.37;;
14139;SDS011;7150;53.514;9.988;2024-02-28T03:20:54;22.67;;;13.10;;
14139;SDS011;7150;53.514;9.988;2024-02-28T03:23:20;27.83;;;15.47;;
14139;SDS011;7150;53.514;9.988;2024-02-28T03:25:46;23.30;;;13.77;;
14139;SDS011;7150;53.514;9.988;2024-02-28T03:28:11;26.27;;;14.70;;
14139;SDS011;7150;53.514;9.988;2024-02-28T03:30:36;21.73;;;12.63;;
14139;SDS011;7150;53.514;9.988;2024-02-28T03:33:02;23.80;;;13.73;;
14139;SDS011;7150;53.514;9.988;2024-02-28T03:35:28;24.17;;;13.30;;
14139;SDS011;7150;53.514;9.988;2024-02-28T03:37:53;21.87;;;12.63;;
14139;SDS011;7150;53.514;9.988;2024-02-28T03:40:19;22.87;;;12.60;;
14139;SDS011;7150;53.514;9.988;2024-02-28T03:42:44;25.07;;;13.60;;
14139;SDS011;7150;53.514;9.988;2024-02-28T03:45:10;22.30;;;13.73;;
14139;SDS011;7150;53.514;9.988;2024-02-28T03:47:36;24.97;;;14.37;;
14139;SDS011;7150;53.514;9.988;2024-02-28T03:50:01;24.03;;;14.03;;
14139;SDS011;7150;53.514;9.988;2024-02-28T03:52:28;19.47;;;11.53;;
14139;SDS011;7150;53.514;9.988;2024-02-28T03:54:55;22.00;;;13.53;;
14139;SDS011;7150;53.514;9.988;2024-02-28T03:57:20;24.97;;;13.83;;
14139;SDS011;7150;53.514;9.988;2024-02-28T03:59:46;24.40;;;13.73;;
14139;SDS011;7150;53.514;9.988;2024-02-28T04:02:11;22.10;;;13.10;;
14139;SDS011;7150;53.514;9.988;2024-02-28T04:04:37;21.90;;;12.47;;
14139;SDS011;7150;53.514;9.988;2024-02-28T04:07:02;22.20;;;13.27;;
14139;SDS011;7150;53.514;9.988;2024-02-28T04:09:28;21.70;;;13.03;;
14139;SDS011;7150;53.514;9.988;2024-02-28T04:11:53;25.60;;;14.17;;
14139;SDS011;7150;53.514;9.988;2024-02-28T04:14:19;21.07;;;12.83;;
14139;SDS011;7150;53.514;9.988;2024-02-28T04:16:44;23.03;;;13.20;;
14139;SDS011;7150;53.514;9.988;2024-02-28T04:19:10;23.87;;;12.80;;
14139;SDS011;7150;53.514;9.988;2024-02-28T04:21:36;24.73;;;12.37;;
14139;SDS011;7150;53.514;9.988;2024-02-28T04:24:02;21.77;;;13.10;;
14139;SDS011;7150;53.514;9.988;2024-02-28T04:26:28;21.33;;;12.40;;
14139;SDS011;7150;53.514;9.988;2024-02-28T04:28:54;25.47;;;13.70;;
14139;SDS011;7150;53.514;9.988;2024-02-28T04:31:20;21.20;;;12.80;;
14139;SDS011;7150;53.514;9.988;2024-02-28T04:33:45;21.27;;;12.73;;
14139;SDS011;7150;53.514;9.988;2024-02-28T04:36:10;22.83;;;12.93;;
14139;SDS011;7150;53.514;9.988;2024-02-28T04:38:36;19.93;;;12.47;;
14139;SDS011;7150;53.514;9.988;2024-02-28T04:41:01;21.50;;;12.80;;
14139;SDS011;7150;53.514;9.988;2024-02-28T04:43:28;21.83;;;13.47;;
14139;SDS011;7150;53.514;9.988;2024-02-28T04:45:53;19.30;;;11.63;;
14139;SDS011;7150;53.514;9.988;2024-02-28T04:48:19;23.07;;;13.63;;
14139;SDS011;7150;53.514;9.988;2024-02-28T04:50:44;23.53;;;12.87;;
14139;SDS011;7150;53.514;9.988;2024-02-28T04:53:10;21.93;;;12.40;;
14139;SDS011;7150;53.514;9.988;2024-02-28T04:55:35;21.27;;;13.07;;
14139;SDS011;7150;53.514;9.988;2024-02-28T04:58:01;24.43;;;13.77;;
14139;SDS011;7150;53.514;9.988;2024-02-28T05:00:27;22.73;;;12.40;;
14139;SDS011;7150;53.514;9.988;2024-02-28T05:02:52;24.10;;;14.63;;
14139;SDS011;7150;53.514;9.988;2024-02-28T05:05:18;22.03;;;13.57;;
14139;SDS011;7150;53.514;9.988;2024-02-28T05:07:43;23.00;;;13.40;;
14139;SDS011;7150;53.514;9.988;2024-02-28T05:10:09;21.70;;;12.80;;
14139;SDS011;7150;53.514;9.988;2024-02-28T05:12:34;24.23;;;13.77;;
14139;SDS011;7150;53.514;9.988;2024-02-28T05:15:00;21.87;;;13.33;;
14139;SDS011;7150;53.514;9.988;2024-02-28T05:17:25;23.10;;;13.93;;
14139;SDS011;7150;53.514;9.988;2024-02-28T05:19:52;23.33;;;13.03;;
14139;SDS011;7150;53.514;9.988;2024-02-28T05:22:17;23.87;;;13.70;;
14139;SDS011;7150;53.514;9.988;2024-02-28T05:24:45;25.40;;;14.30;;
14139;SDS011;7150;53.514;9.988;2024-02-28T05:27:11;24.80;;;14.27;;
14139;SDS011;7150;53.514;9.988;2024-02-28T05:29:36;23.20;;;13.40;;
14139;SDS011;7150;53.514;9.988;2024-02-28T05:32:02;24.03;;;14.13;;
14139;SDS011;7150;53.514;9.988;2024-02-28T05:34:28;23.97;;;14.33;;
14139;SDS011;7150;53.514;9.988;2024-02-28T05:36:54;22.23;;;13.77;;
14139;SDS011;7150;53.514;9.988;2024-02-28T05:39:20;19.67;;;12.70;;
14139;SDS011;7150;53.514;9.988;2024-02-28T05:41:45;23.10;;;13.53;;
14139;SDS011;7150;53.514;9.988;2024-02-28T05:44:11;25.70;;;14.57;;
14139;SDS011;7150;53.514;9.988;2024-02-28T05:46:37;22.07;;;13.77;;
14139;SDS011;7150;53.514;9.988;2024-02-28T05:49:03;20.07;;;12.77;;
14139;SDS011;7150;53.514;9.988;2024-02-28T05:51:29;21.90;;;13.07;;
14139;SDS011;7150;53.514;9.988;2024-02-28T05:53:54;20.20;;;12.77;;
14139;SDS011;7150;53.514;9.988;2024-02-28T05:56:20;19.83;;;12.47;;
14139;SDS011;7150;53.514;9.988;2024-02-28T05:58:46;18.53;;;12.10;;
14139;SDS011;7150;53.514;9.988;2024-02-28T06:01:14;20.77;;;12.57;;
14139;SDS011;7150;53.514;9.988;2024-02-28T06:03:40;18.37;;;11.63;;
14139;SDS011;7150;53.514;9.988;2024-02-28T06:06:06;16.93;;;10.53;;
14139;SDS011;7150;53.514;9.988;2024-02-28T06:08:37;17.83;;;11.97;;
14139;SDS011;7150;53.514;9.988;2024-02-28T06:11:04;17.80;;;11.50;;
14139;SDS011;7150;53.514;9.988;2024-02-28T06:13:30;17.10;;;11.43;;
14139;SDS011;7150;53.514;9.988;2024-02-28T06:15:56;17.20;;;10.07;;
14139;SDS011;7150;53.514;9.988;2024-02-28T06:18:22;14.87;;;10.20;;
14139;SDS011;7150;53.514;9.988;2024-02-28T06:20:49;15.53;;;10.53;;
14139;SDS011;7150;53.514;9.988;2024-02-28T06:23:14;16.83;;;10.23;;
14139;SDS011;7150;53.514;9.988;2024-02-28T06:25:40;15.17;;;9.70;;
14139;SDS011;7150;53.514;9.988;2024-02-28T06:28:05;15.60;;;10.40;;
14139;SDS011;7150;53.514;9.988;2024-02-28T06:30:32;16.53;;;10.13;;
14139;SDS011;7150;53.514;9.988;2024-02-28T06:33:00;14.40;;;8.80;;
14139;SDS011;7150;53.514;9.988;2024-02-28T06:35:26;14.23;;;9.47;;
14139;SDS011;7150;53.514;9.988;2024-02-28T06:37:52;15.03;;;9.90;;
14139;SDS011;7150;53.514;9.988;2024-02-28T06:40:18;15.67;;;9.77;;
14139;SDS011;7150;53.514;9.988;2024-02-28T06:42:43;14.63;;;9.10;;
14139;SDS011;7150;53.514;9.988;2024-02-28T06:45:09;14.37;;;9.27;;
14139;SDS011;7150;53.514;9.988;2024-02-28T06:47:35;12.80;;;8.93;;
14139;SDS011;7150;53.514;9.988;2024-02-28T06:50:02;14.83;;;9.13;;
14139;SDS011;7150;53.514;9.988;2024-02-28T06:52:29;15.20;;;9.70;;
14139;SDS011;7150;53.514;9.988;2024-02-28T06:54:54;15.40;;;9.03;;
14139;SDS011;7150;53.514;9.988;2024-02-28T06:57:20;13.07;;;8.67;;
14139;SDS011;7150;53.514;9.988;2024-02-28T06:59:45;14.33;;;9.30;;
14139;SDS011;7150;53.514;9.988;2024-02-28T07:02:11;14.77;;;9.07;;
14139;SDS011;7150;53.514;9.988;2024-02-28T07:04:37;14.67;;;9.17;;
14139;SDS011;7150;53.514;9.988;2024-02-28T07:07:03;12.47;;;8.57;;
14139;SDS011;7150;53.514;9.988;2024-02-28T07:09:29;15.20;;;9.47;;
14139;SDS011;7150;53.514;9.988;2024-02-28T07:11:58;13.77;;;8.60;;
14139;SDS011;7150;53.514;9.988;2024-02-28T07:14:24;12.80;;;8.20;;
14139;SDS011;7150;53.514;9.988;2024-02-28T07:16:49;13.33;;;8.27;;
14139;SDS011;7150;53.514;9.988;2024-02-28T07:19:17;15.13;;;9.00;;
14139;SDS011;7150;53.514;9.988;2024-02-28T07:21:42;12.37;;;9.03;;
14139;SDS011;7150;53.514;9.988;2024-02-28T07:24:09;13.13;;;8.70;;
14139;SDS011;7150;53.514;9.988;2024-02-28T07:26:36;14.00;;;8.83;;
14139;SDS011;7150;53.514;9.988;2024-02-28T07:29:01;12.67;;;8.53;;
14139;SDS011;7150;53.514;9.988;2024-02-28T07:31:27;14.63;;;8.57;;
14139;SDS011;7150;53.514;9.988;2024-02-28T07:33:52;13.80;;;8.83;;
14139;SDS011;7150;53.514;9.988;2024-02-28T07:36:19;14.50;;;8.70;;
14139;SDS011;7150;53.514;9.988;2024-02-28T07:38:44;14.83;;;10.07;;
14139;SDS011;7150;53.514;9.988;2024-02-28T07:41:10;15.87;;;9.33;;
14139;SDS011;7150;53.514;9.988;2024-02-28T07:43:35;15.23;;;9.60;;
14139;SDS011;7150;53.514;9.988;2024-02-28T07:46:07;15.20;;;9.53;;
14139;SDS011;7150;53.514;9.988;2024-02-28T07:48:33;15.03;;;10.17;;
14139;SDS011;7150;53.514;9.988;2024-02-28T07:50:59;14.77;;;9.67;;
14139;SDS011;7150;53.514;9.988;2024-02-28T07:53:24;15.70;;;10.33;;
14139;SDS011;7150;53.514;9.988;2024-02-28T07:55:50;18.30;;;10.70;;
14139;SDS011;7150;53.514;9.988;2024-02-28T07:58:15;18.43;;;10.17;;
14139;SDS011;7150;53.514;9.988;2024-02-28T08:00:41;16.90;;;11.00;;
14139;SDS011;7150;53.514;9.988;2024-02-28T08:03:08;16.60;;;10.13;;
14139;SDS011;7150;53.514;9.988;2024-02-28T08:05:34;17.47;;;11.43;;
14139;SDS011;7150;53.514;9.988;2024-02-28T08:08:04;16.53;;;9.90;;
14139;SDS011;7150;53.514;9.988;2024-02-28T08:10:30;16.07;;;10.50;;
14139;SDS011;7150;53.514;9.988;2024-02-28T08:12:56;18.33;;;10.77;;
14139;SDS011;7150;53.514;9.988;2024-02-28T08:15:21;18.10;;;11.37;;
14139;SDS011;7150;53.514;9.988;2024-02-28T08:17:47;17.87;;;11.70;;
14139;SDS011;7150;53.514;9.988;2024-02-28T08:20:12;18.17;;;10.93;;
14139;SDS011;7150;53.514;9.988;2024-02-28T08:22:38;17.83;;;10.73;;
14139;SDS011;7150;53.514;9.988;2024-02-28T08:25:04;18.93;;;11.37;;
14139;SDS011;7150;53.514;9.988;2024-02-28T08:27:30;19.27;;;11.60;;
14139;SDS011;7150;53.514;9.988;2024-02-28T08:29:55;17.67;;;11.63;;
14139;SDS011;7150;53.514;9.988;2024-02-28T08:32:21;21.00;;;12.27;;
14139;SDS011;7150;53.514;9.988;2024-02-28T08:34:46;24.47;;;13.43;;
14139;SDS011;7150;53.514;9.988;2024-02-28T08:37:15;20.97;;;12.77;;
14139;SDS011;7150;53.514;9.988;2024-02-28T08:39:42;22.53;;;13.23;;
14139;SDS011;7150;53.514;9.988;2024-02-28T08:42:07;24.83;;;13.27;;
14139;SDS011;7150;53.514;9.988;2024-02-28T08:44:33;19.77;;;13.30;;
14139;SDS011;7150;53.514;9.988;2024-02-28T08:46:58;20.10;;;12.27;;
14139;SDS011;7150;53.514;9.988;2024-02-28T08:49:24;23.17;;;13.87;;
14139;SDS011;7150;53.514;9.988;2024-02-28T08:51:49;23.50;;;14.70;;
14139;SDS011;7150;53.514;9.988;2024-02-28T08:54:15;24.20;;;15.00;;
14139;SDS011;7150;53.514;9.988;2024-02-28T08:56:40;25.47;;;15.00;;
14139;SDS011;7150;53.514;9.988;2024-02-28T08:59:06;22.57;;;14.77;;
14139;SDS011;7150;53.514;9.988;2024-02-28T09:01:34;24.87;;;14.87;;
14139;SDS011;7150;53.514;9.988;2024-02-28T09:04:00;23.13;;;13.80;;
14139;SDS011;7150;53.514;9.988;2024-02-28T09:06:26;27.50;;;16.07;;
14139;SDS011;7150;53.514;9.988;2024-02-28T09:08:52;25.70;;;15.60;;
14139;SDS011;7150;53.514;9.988;2024-02-28T09:11:17;24.00;;;14.40;;
14139;SDS011;7150;53.514;9.988;2024-02-28T09:13:46;25.43;;;14.80;;
14139;SDS011;7150;53.514;9.988;2024-02-28T09:16:11;25.37;;;14.93;;
14139;SDS011;7150;53.514;9.988;2024-02-28T09:18:37;21.57;;;13.40;;
14139;SDS011;7150;53.514;9.988;2024-02-28T09:21:03;23.33;;;13.93;;
14139;SDS011;7150;53.514;9.988;2024-02-28T09:23:29;24.27;;;13.90;;
14139;SDS011;7150;53.514;9.988;2024-02-28T09:25:55;25.87;;;15.40;;
14139;SDS011;7150;53.514;9.988;2024-02-28T09:28:22;24.23;;;14.43;;
14139;SDS011;7150;53.514;9.988;2024-02-28T09:30:48;22.73;;;13.73;;
14139;SDS011;7150;53.514;9.988;2024-02-28T09:33:15;21.13;;;13.30;;
14139;SDS011;7150;53.514;9.988;2024-02-28T09:35:41;22.67;;;14.07;;
14139;SDS011;7150;53.514;9.988;2024-02-28T09:38:07;23.43;;;13.90;;
14139;SDS011;7150;53.514;9.988;2024-02-28T09:40:32;20.97;;;12.73;;
14139;SDS011;7150;53.514;9.988;2024-02-28T09:43:01;24.37;;;14.30;;
14139;SDS011;7150;53.514;9.988;2024-02-28T09:45:30;21.70;;;13.10;;
14139;SDS011;7150;53.514;9.988;2024-02-28T09:48:00;23.07;;;14.87;;
14139;SDS011;7150;53.514;9.988;2024-02-28T09:50:26;20.83;;;13.70;;
14139;SDS011;7150;53.514;9.988;2024-02-28T09:52:55;21.77;;;12.83;;
14139;SDS011;7150;53.514;9.988;2024-02-28T09:55:21;19.67;;;12.67;;
14139;SDS011;7150;53.514;9.988;2024-02-28T09:57:49;19.77;;;12.30;;
14139;SDS011;7150;53.514;9.988;2024-02-28T10:00:17;20.17;;;12.93;;
14139;SDS011;7150;53.514;9.988;2024-02-28T10:02:45;19.43;;;11.67;;
14139;SDS011;7150;53.514;9.988;2024-02-28T10:05:17;16.73;;;10.90;;
14139;SDS011;7150;53.514;9.988;2024-02-28T10:07:44;18.80;;;11.73;;
14139;SDS011;7150;53.514;9.988;2024-02-28T10:10:11;18.87;;;11.97;;
14139;SDS011;7150;53.514;9.988;2024-02-28T10:12:42;19.87;;;12.93;;
14139;SDS011;7150;53.514;9.988;2024-02-28T10:15:09;17.27;;;10.93;;
14139;SDS011;7150;53.514;9.988;2024-02-28T10:17:35;18.67;;;11.67;;
14139;SDS011;7150;53.514;9.988;2024-02-28T10:20:01;17.57;;;10.97;;
14139;SDS011;7150;53.514;9.988;2024-02-28T10:22:33;17.90;;;11.60;;
14139;SDS011;7150;53.514;9.988;2024-02-28T10:24:59;19.67;;;11.43;;
14139;SDS011;7150;53.514;9.988;2024-02-28T10:27:25;18.57;;;11.70;;
14139;SDS011;7150;53.514;9.988;2024-02-28T10:29:51;18.20;;;10.93;;
14139;SDS011;7150;53.514;9.988;2024-02-28T10:32:16;18.57;;;11.57;;
14139;SDS011;7150;53.514;9.988;2024-02-28T10:34:42;24.20;;;13.20;;
14139;SDS011;7150;53.514;9.988;2024-02-28T10:37:08;22.20;;;12.40;;
14139;SDS011;7150;53.514;9.988;2024-02-28T10:39:35;21.00;;;13.43;;
14139;SDS011;7150;53.514;9.988;2024-02-28T10:42:01;18.07;;;11.57;;
14139;SDS011;7150;53.514;9.988;2024-02-28T10:44:28;19.27;;;11.20;;
14139;SDS011;7150;53.514;9.988;2024-02-28T10:46:55;21.33;;;12.30;;
14139;SDS011;7150;53.514;9.988;2024-02-28T10:49:22;18.87;;;11.60;;
14139;SDS011;7150;53.514;9.988;2024-02-28T10:51:48;18.97;;;11.43;;
14139;SDS011;7150;53.514;9.988;2024-02-28T10:54:19;17.03;;;10.80;;
14139;SDS011;7150;53.514;9.988;2024-02-28T10:56:49;17.57;;;10.93;;
14139;SDS011;7150;53.514;9.988;2024-02-28T10:59:14;16.70;;;11.00;;
14139;SDS011;7150;53.514;9.988;2024-02-28T11:01:40;18.07;;;10.57;;
14139;SDS011;7150;53.514;9.988;2024-02-28T11:04:08;15.83;;;9.50;;
14139;SDS011;7150;53.514;9.988;2024-02-28T11:06:47;17.13;;;10.30;;
14139;SDS011;7150;53.514;9.988;2024-02-28T11:09:18;14.17;;;9.07;;
14139;SDS011;7150;53.514;9.988;2024-02-28T11:11:47;16.83;;;10.03;;
14139;SDS011;7150;53.514;9.988;2024-02-28T11:14:15;19.47;;;10.53;;
14139;SDS011;7150;53.514;9.988;2024-02-28T11:16:41;17.33;;;10.30;;
14139;SDS011;7150;53.514;9.988;2024-02-28T11:19:18;15.43;;;9.93;;
14139;SDS011;7150;53.514;9.988;2024-02-28T11:21:54;15.80;;;9.43;;
14139;SDS011;7150;53.514;9.988;2024-02-28T11:24:23;16.40;;;9.70;;
14139;SDS011;7150;53.514;9.988;2024-02-28T11:26:52;14.30;;;8.83;;
14139;SDS011;7150;53.514;9.988;2024-02-28T11:29:24;16.97;;;9.40;;
14139;SDS011;7150;53.514;9.988;2024-02-28T11:31:52;15.83;;;9.13;;
14139;SDS011;7150;53.514;9.988;2024-02-28T11:34:18;15.40;;;9.43;;
14139;SDS011;7150;53.514;9.988;2024-02-28T11:36:46;16.27;;;10.00;;
14139;SDS011;7150;53.514;9.988;2024-02-28T11:39:14;19.10;;;11.20;;
14139;SDS011;7150;53.514;9.988;2024-02-28T11:41:39;18.30;;;10.90;;
14139;SDS011;7150;53.514;9.988;2024-02-28T11:44:05;18.00;;;10.77;;
14139;SDS011;7150;53.514;9.988;2024-02-28T11:46:31;19.03;;;11.60;;
14139;SDS011;7150;53.514;9.988;2024-02-28T11:48:57;16.03;;;10.40;;
14139;SDS011;7150;53.514;9.988;2024-02-28T11:51:23;17.07;;;10.73;;
14139;SDS011;7150;53.514;9.988;2024-02-28T11:53:48;16.47;;;10.60;;
14139;SDS011;7150;53.514;9.988;2024-02-28T11:56:15;15.67;;;9.77;;
14139;SDS011;7150;53.514;9.988;2024-02-28T11:58:49;16.53;;;9.87;;
14139;SDS011;7150;53.514;9.988;2024-02-28T12:01:16;16.50;;;10.03;;
14139;SDS011;7150;53.514;9.988;2024-02-28T12:03:44;16.00;;;10.23;;
14139;SDS011;7150;53.514;9.988;2024-02-28T12:06:10;16.37;;;9.37;;
14139;SDS011;7150;53.514;9.988;2024-02-28T12:08:36;17.07;;;10.70;;
14139;SDS011;7150;53.514;9.988;2024-02-28T12:11:08;19.90;;;11.77;;
14139;SDS011;7150;53.514;9.988;2024-02-28T12:13:36;18.50;;;10.57;;
14139;SDS011;7150;53.514;9.988;2024-02-28T12:16:04;18.47;;;11.13;;
14139;SDS011;7150;53.514;9.988;2024-02-28T12:18:29;17.60;;;11.13;;
14139;SDS011;7150;53.514;9.988;2024-02-28T12:20:55;15.57;;;10.10;;
14139;SDS011;7150;53.514;9.988;2024-02-28T12:23:22;17.30;;;10.10;;
14139;SDS011;7150;53.514;9.988;2024-02-28T12:25:47;19.00;;;11.37;;
14139;SDS011;7150;53.514;9.988;2024-02-28T12:28:13;18.47;;;10.77;;
14139;SDS011;7150;53.514;9.988;2024-02-28T12:30:40;14.47;;;9.90;;
14139;SDS011;7150;53.514;9.988;2024-02-28T12:33:07;15.30;;;9.87;;
14139;SDS011;7150;53.514;9.988;2024-02-28T12:35:36;15.70;;;9.50;;
14139;SDS011;7150;53.514;9.988;2024-02-28T12:38:02;19.07;;;11.37;;
14139;SDS011;7150;53.514;9.988;2024-02-28T12:40:27;16.53;;;11.13;;
14139;SDS011;7150;53.514;9.988;2024-02-28T12:42:53;20.43;;;11.77;;
14139;SDS011;7150;53.514;9.988;2024-02-28T12:45:18;16.33;;;10.27;;
14139;SDS011;7150;53.514;9.988;2024-02-28T12:47:44;16.63;;;9.83;;
14139;SDS011;7150;53.514;9.988;2024-02-28T12:50:09;19.00;;;10.40;;
14139;SDS011;7150;53.514;9.988;2024-02-28T12:52:36;16.77;;;9.63;;
14139;SDS011;7150;53.514;9.988;2024-02-28T12:55:02;16.10;;;9.43;;
14139;SDS011;7150;53.514;9.988;2024-02-28T12:57:28;13.63;;;8.47;;
14139;SDS011;7150;53.514;9.988;2024-02-28T12:59:53;16.83;;;10.17;;
14139;SDS011;7150;53.514;9.988;2024-02-28T13:02:20;17.43;;;9.60;;
14139;SDS011;7150;53.514;9.988;2024-02-28T13:04:47;14.00;;;8.40;;
14139;SDS011;7150;53.514;9.988;2024-02-28T13:07:13;16.70;;;9.77;;
14139;SDS011;7150;53.514;9.988;2024-02-28T13:09:39;17.97;;;10.10;;
14139;SDS011;7150;53.514;9.988;2024-02-28T13:12:05;20.37;;;11.77;;
14139;SDS011;7150;53.514;9.988;2024-02-28T13:14:31;18.00;;;10.53;;
14139;SDS011;7150;53.514;9.988;2024-02-28T13:16:57;20.60;;;12.20;;
14139;SDS011;7150;53.514;9.988;2024-02-28T13:19:23;18.53;;;11.57;;
14139;SDS011;7150;53.514;9.988;2024-02-28T13:21:49;20.87;;;11.67;;
14139;SDS011;7150;53.514;9.988;2024-02-28T13:24:14;17.13;;;10.87;;
14139;SDS011;7150;53.514;9.988;2024-02-28T13:26:41;14.70;;;10.33;;
14139;SDS011;7150;53.514;9.988;2024-02-28T13:29:07;15.37;;;10.00;;
14139;SDS011;7150;53.514;9.988;2024-02-28T13:31:33;13.53;;;8.40;;
14139;SDS011;7150;53.514;9.988;2024-02-28T13:33:59;14.63;;;8.57;;
14139;SDS011;7150;53.514;9.988;2024-02-28T13:36:25;14.33;;;8.83;;
14139;SDS011;7150;53.514;9.988;2024-02-28T13:38:51;14.43;;;8.57;;
14139;SDS011;7150;53.514;9.988;2024-02-28T13:41:16;15.93;;;8.27;;
14139;SDS011;7150;53.514;9.988;2024-02-28T13:43:42;13.30;;;7.83;;
14139;SDS011;7150;53.514;9.988;2024-02-28T13:46:07;14.87;;;9.53;;
14139;SDS011;7150;53.514;9.988;2024-02-28T13:48:35;16.13;;;8.77;;
14139;SDS011;7150;53.514;9.988;2024-02-28T13:51:00;12.80;;;7.73;;
14139;SDS011;7150;53.514;9.988;2024-02-28T13:53:27;13.37;;;7.47;;
14139;SDS011;7150;53.514;9.988;2024-02-28T13:55:52;14.40;;;8.13;;
14139;SDS011;7150;53.514;9.988;2024-02-28T13:58:18;14.37;;;8.30;;
14139;SDS011;7150;53.514;9.988;2024-02-28T14:00:46;14.17;;;8.90;;
14139;SDS011;7150;53.514;9.988;2024-02-28T14:03:12;14.97;;;9.00;;
14139;SDS011;7150;53.514;9.988;2024-02-28T14:05:38;17.23;;;9.90;;
14139;SDS011;7150;53.514;9.988;2024-02-28T14:08:04;14.00;;;8.47;;
14139;SDS011;7150;53.514;9.988;2024-02-28T14:10:32;13.80;;;8.13;;
14139;SDS011;7150;53.514;9.988;2024-02-28T14:12:58;14.67;;;8.03;;
14139;SDS011;7150;53.514;9.988;2024-02-28T14:15:23;13.13;;;8.57;;
14139;SDS011;7150;53.514;9.988;2024-02-28T14:17:49;16.10;;;8.60;;
14139;SDS011;7150;53.514;9.988;2024-02-28T14:20:14;10.87;;;7.07;;
14139;SDS011;7150;53.514;9.988;2024-02-28T14:22:40;13.30;;;7.33;;
14139;SDS011;7150;53.514;9.988;2024-02-28T14:25:12;12.43;;;7.07;;
14139;SDS011;7150;53.514;9.988;2024-02-28T14:27:41;14.60;;;8.17;;
14139;SDS011;7150;53.514;9.988;2024-02-28T14:30:08;13.33;;;7.47;;
14139;SDS011;7150;53.514;9.988;2024-02-28T14:32:35;12.60;;;7.37;;